Terminal Aerodrome Forecast
Issued by NWS

Home | Current Version | Previous Version | Graphics & Text | Print | Product List | Glossary On
Versions: 1 2 3 4 5 6 7 8 9 10 11 12 13 14 15 16 17 18 19 20 21 22 23 24 25 26 27 28
000
FTUS45 KBOU 280522
TAFBJC
TAF
KBJC 280522Z 2806/0106 05012KT P6SM SCT080 BKN200
     FM280800 08009KT P6SM FEW050 SCT100 BKN200
     FM281100 17007KT P6SM SCT050 BKN110
     FM281800 14008KT P6SM VCSH SCT020 BKN080
      TEMPO 2820/2823 05008KT 3SM -SHSN BKN020
     FM282300 33010KT P6SM VCSH OVC020
     FM010100 30010KT P6SM BKN050
     FM010300 27008KT P6SM SCT120=

USA.gov is the U.S. government's official web portal to all federal, state and local government web resources and services.